sensor_id;sensor_type;location;lat;lon;timestamp;temperature;humidity
652;DHT22;310;48.490;9.200;2023-01-01T00:00:11;14.00;46.00
652;DHT22;310;48.490;9.200;2023-01-01T00:02:36;14.30;44.20
652;DHT22;310;48.490;9.200;2023-01-01T00:05:03;14.60;43.10
652;DHT22;310;48.490;9.200;2023-01-01T00:07:29;14.50;42.50
652;DHT22;310;48.490;9.200;2023-01-01T00:09:54;14.30;43.40
652;DHT22;310;48.490;9.200;2023-01-01T00:12:39;14.30;44.30
652;DHT22;310;48.490;9.200;2023-01-01T00:15:05;14.60;43.90
652;DHT22;310;48.490;9.200;2023-01-01T00:17:30;14.20;43.70
652;DHT22;310;48.490;9.200;2023-01-01T00:19:56;14.20;43.90
652;DHT22;310;48.490;9.200;2023-01-01T00:22:22;14.20;43.50
652;DHT22;310;48.490;9.200;2023-01-01T00:24:47;14.10;44.00
652;DHT22;310;48.490;9.200;2023-01-01T00:27:13;14.00;44.30
652;DHT22;310;48.490;9.200;2023-01-01T00:29:38;14.20;43.20
652;DHT22;310;48.490;9.200;2023-01-01T00:32:04;14.30;44.30
652;DHT22;310;48.490;9.200;2023-01-01T00:34:30;14.00;44.30
652;DHT22;310;48.490;9.200;2023-01-01T00:36:56;14.50;42.50
652;DHT22;310;48.490;9.200;2023-01-01T00:39:21;14.50;42.30
652;DHT22;310;48.490;9.200;2023-01-01T00:41:47;14.90;40.80
652;DHT22;310;48.490;9.200;2023-01-01T00:44:13;15.30;40.10
652;DHT22;310;48.490;9.200;2023-01-01T00:46:38;15.40;39.70
652;DHT22;310;48.490;9.200;2023-01-01T00:49:04;17.10;41.00
652;DHT22;310;48.490;9.200;2023-01-01T00:51:29;15.30;39.70
652;DHT22;310;48.490;9.200;2023-01-01T00:53:55;15.60;38.40
652;DHT22;310;48.490;9.200;2023-01-01T00:56:21;15.60;37.80
652;DHT22;310;48.490;9.200;2023-01-01T00:58:47;16.10;37.30
652;DHT22;310;48.490;9.200;2023-01-01T01:01:12;16.20;36.90
652;DHT22;310;48.490;9.200;2023-01-01T01:03:38;16.60;35.40
652;DHT22;310;48.490;9.200;2023-01-01T01:08:31;17.30;33.30
652;DHT22;310;48.490;9.200;2023-01-01T01:11:21;17.50;32.80
652;DHT22;310;48.490;9.200;2023-01-01T01:13:49;17.20;33.20
652;DHT22;310;48.490;9.200;2023-01-01T01:16:19;17.60;32.90
652;DHT22;310;48.490;9.200;2023-01-01T01:18:45;18.00;32.00
652;DHT22;310;48.490;9.200;2023-01-01T01:21:16;18.00;31.60
652;DHT22;310;48.490;9.200;2023-01-01T01:23:42;18.00;31.40
652;DHT22;310;48.490;9.200;2023-01-01T01:26:27;18.10;31.20
652;DHT22;310;48.490;9.200;2023-01-01T01:28:53;18.10;31.60
652;DHT22;310;48.490;9.200;2023-01-01T01:31:21;17.90;31.30
652;DHT22;310;48.490;9.200;2023-01-01T01:33:48;17.80;31.80
652;DHT22;310;48.490;9.200;2023-01-01T01:36:15;17.80;31.60
652;DHT22;310;48.490;9.200;2023-01-01T01:38:41;17.70;32.10
652;DHT22;310;48.490;9.200;2023-01-01T01:41:07;17.80;31.70
652;DHT22;310;48.490;9.200;2023-01-01T01:46:12;18.40;30.70
652;DHT22;310;48.490;9.200;2023-01-01T01:48:42;18.60;30.00
652;DHT22;310;48.490;9.200;2023-01-01T01:51:11;18.40;31.10
652;DHT22;310;48.490;9.200;2023-01-01T01:53:44;18.40;30.00
652;DHT22;310;48.490;9.200;2023-01-01T01:56:17;21.40;33.10
652;DHT22;310;48.490;9.200;2023-01-01T01:58:44;18.10;31.00
652;DHT22;310;48.490;9.200;2023-01-01T02:01:09;18.40;30.30
652;DHT22;310;48.490;9.200;2023-01-01T02:03:46;18.40;30.30
652;DHT22;310;48.490;9.200;2023-01-01T02:06:14;18.30;30.30
652;DHT22;310;48.490;9.200;2023-01-01T02:08:40;18.30;30.30
652;DHT22;310;48.490;9.200;2023-01-01T02:11:06;18.50;30.00
652;DHT22;310;48.490;9.200;2023-01-01T02:13:31;18.20;30.30
652;DHT22;310;48.490;9.200;2023-01-01T02:16:05;18.50;30.10
652;DHT22;310;48.490;9.200;2023-01-01T02:18:51;18.50;29.80
652;DHT22;310;48.490;9.200;2023-01-01T02:21:27;18.50;29.80
652;DHT22;310;48.490;9.200;2023-01-01T02:24:11;18.70;29.40
652;DHT22;310;48.490;9.200;2023-01-01T02:27:03;18.50;30.00
652;DHT22;310;48.490;9.200;2023-01-01T02:37:53;16.80;34.30
652;DHT22;310;48.490;9.200;2023-01-01T02:40:22;17.10;33.60
652;DHT22;310;48.490;9.200;2023-01-01T02:42:49;17.20;33.20
652;DHT22;310;48.490;9.200;2023-01-01T02:45:16;17.00;33.70
652;DHT22;310;48.490;9.200;2023-01-01T02:47:42;16.60;34.70
652;DHT22;310;48.490;9.200;2023-01-01T02:50:13;16.40;35.20
652;DHT22;310;48.490;9.200;2023-01-01T02:53:00;16.40;35.00
652;DHT22;310;48.490;9.200;2023-01-01T02:55:57;16.40;36.00
652;DHT22;310;48.490;9.200;2023-01-01T02:58:47;16.50;34.80
652;DHT22;310;48.490;9.200;2023-01-01T03:01:53;16.40;35.00
652;DHT22;310;48.490;9.200;2023-01-01T03:04:27;16.30;35.40
652;DHT22;310;48.490;9.200;2023-01-01T03:07:11;16.20;34.90
652;DHT22;310;48.490;9.200;2023-01-01T03:10:02;16.50;34.60
652;DHT22;310;48.490;9.200;2023-01-01T03:13:03;16.50;34.60
652;DHT22;310;48.490;9.200;2023-01-01T03:15:40;16.30;35.00
652;DHT22;310;48.490;9.200;2023-01-01T03:18:22;16.00;35.00
652;DHT22;310;48.490;9.200;2023-01-01T03:20:53;16.40;33.70
652;DHT22;310;48.490;9.200;2023-01-01T03:23:25;16.90;33.10
652;DHT22;310;48.490;9.200;2023-01-01T03:25:56;17.20;32.10
652;DHT22;310;48.490;9.200;2023-01-01T03:28:34;17.20;31.70
652;DHT22;310;48.490;9.200;2023-01-01T03:31:01;17.50;30.90
652;DHT22;310;48.490;9.200;2023-01-01T03:33:48;17.60;31.10
652;DHT22;310;48.490;9.200;2023-01-01T03:36:20;17.80;30.40
652;DHT22;310;48.490;9.200;2023-01-01T03:38:51;16.70;32.70
652;DHT22;310;48.490;9.200;2023-01-01T03:44:11;16.00;35.50
652;DHT22;310;48.490;9.200;2023-01-01T03:46:40;16.50;34.50
652;DHT22;310;48.490;9.200;2023-01-01T03:49:07;16.60;34.00
652;DHT22;310;48.490;9.200;2023-01-01T04:00:35;16.40;34.30
652;DHT22;310;48.490;9.200;2023-01-01T04:03:16;16.40;34.40
652;DHT22;310;48.490;9.200;2023-01-01T04:05:44;16.40;34.50
652;DHT22;310;48.490;9.200;2023-01-01T04:08:11;16.20;34.50
652;DHT22;310;48.490;9.200;2023-01-01T04:10:43;16.00;35.00
652;DHT22;310;48.490;9.200;2023-01-01T04:13:10;15.80;35.80
652;DHT22;310;48.490;9.200;2023-01-01T04:15:36;15.90;35.30
652;DHT22;310;48.490;9.200;2023-01-01T04:18:02;15.70;35.50
652;DHT22;310;48.490;9.200;2023-01-01T04:20:27;15.90;35.50
652;DHT22;310;48.490;9.200;2023-01-01T04:22:58;15.90;35.40
652;DHT22;310;48.490;9.200;2023-01-01T04:25:24;15.90;35.50
652;DHT22;310;48.490;9.200;2023-01-01T04:27:50;15.70;35.60
652;DHT22;310;48.490;9.200;2023-01-01T04:30:16;16.00;35.10
652;DHT22;310;48.490;9.200;2023-01-01T04:32:42;16.00;35.10
652;DHT22;310;48.490;9.200;2023-01-01T04:35:09;15.80;35.20
652;DHT22;310;48.490;9.200;2023-01-01T04:37:38;15.70;35.60
652;DHT22;310;48.490;9.200;2023-01-01T04:40:05;15.30;36.50
652;DHT22;310;48.490;9.200;2023-01-01T04:42:31;15.50;36.00
652;DHT22;310;48.490;9.200;2023-01-01T04:44:57;15.30;36.60
652;DHT22;310;48.490;9.200;2023-01-01T04:47:22;15.40;36.70
652;DHT22;310;48.490;9.200;2023-01-01T04:49:48;15.20;37.20
652;DHT22;310;48.490;9.200;2023-01-01T04:52:13;15.50;36.40
652;DHT22;310;48.490;9.200;2023-01-01T04:54:39;15.40;37.20
652;DHT22;310;48.490;9.200;2023-01-01T04:57:05;14.80;37.80
652;DHT22;310;48.490;9.200;2023-01-01T04:59:30;14.70;38.70
652;DHT22;310;48.490;9.200;2023-01-01T05:01:56;14.80;38.30
652;DHT22;310;48.490;9.200;2023-01-01T05:04:22;15.10;37.20
652;DHT22;310;48.490;9.200;2023-01-01T05:06:48;15.10;37.10
652;DHT22;310;48.490;9.200;2023-01-01T05:09:13;15.10;37.10
652;DHT22;310;48.490;9.200;2023-01-01T05:11:39;15.00;37.10
652;DHT22;310;48.490;9.200;2023-01-01T05:14:05;14.80;38.20
652;DHT22;310;48.490;9.200;2023-01-01T05:16:36;15.10;37.10
652;DHT22;310;48.490;9.200;2023-01-01T05:19:02;15.20;37.20
652;DHT22;310;48.490;9.200;2023-01-01T05:21:30;15.30;37.30
652;DHT22;310;48.490;9.200;2023-01-01T05:24:04;14.80;38.00
652;DHT22;310;48.490;9.200;2023-01-01T05:26:33;14.90;38.00
652;DHT22;310;48.490;9.200;2023-01-01T05:28:59;15.00;38.00
652;DHT22;310;48.490;9.200;2023-01-01T05:31:28;15.00;38.40
652;DHT22;310;48.490;9.200;2023-01-01T05:33:54;15.20;37.20
652;DHT22;310;48.490;9.200;2023-01-01T05:36:23;15.20;37.20
652;DHT22;310;48.490;9.200;2023-01-01T05:38:49;15.30;37.10
652;DHT22;310;48.490;9.200;2023-01-01T05:41:16;14.90;37.70
652;DHT22;310;48.490;9.200;2023-01-01T05:43:43;14.40;39.30
652;DHT22;310;48.490;9.200;2023-01-01T05:46:17;14.30;39.90
652;DHT22;310;48.490;9.200;2023-01-01T05:48:43;14.20;40.10
652;DHT22;310;48.490;9.200;2023-01-01T05:51:14;14.20;40.30
652;DHT22;310;48.490;9.200;2023-01-01T05:53:41;14.20;40.40
652;DHT22;310;48.490;9.200;2023-01-01T05:56:07;14.30;39.80
652;DHT22;310;48.490;9.200;2023-01-01T05:58:33;14.30;40.00
652;DHT22;310;48.490;9.200;2023-01-01T06:03:39;14.70;38.50
652;DHT22;310;48.490;9.200;2023-01-01T06:06:07;14.70;38.50
652;DHT22;310;48.490;9.200;2023-01-01T06:08:33;14.40;39.40
652;DHT22;310;48.490;9.200;2023-01-01T06:11:00;14.50;40.00
652;DHT22;310;48.490;9.200;2023-01-01T06:13:26;14.20;40.00
652;DHT22;310;48.490;9.200;2023-01-01T06:15:56;14.20;40.10
652;DHT22;310;48.490;9.200;2023-01-01T06:18:23;12.30;37.80
652;DHT22;310;48.490;9.200;2023-01-01T06:20:49;14.20;39.90
652;DHT22;310;48.490;9.200;2023-01-01T06:23:15;14.20;39.80
652;DHT22;310;48.490;9.200;2023-01-01T06:25:40;14.10;40.70
652;DHT22;310;48.490;9.200;2023-01-01T06:28:06;14.40;40.00
652;DHT22;310;48.490;9.200;2023-01-01T06:30:32;14.50;39.50
652;DHT22;310;48.490;9.200;2023-01-01T06:32:59;14.40;40.10
652;DHT22;310;48.490;9.200;2023-01-01T06:35:25;14.30;39.50
652;DHT22;310;48.490;9.200;2023-01-01T06:37:51;14.20;40.00
652;DHT22;310;48.490;9.200;2023-01-01T06:40:16;14.20;40.00
652;DHT22;310;48.490;9.200;2023-01-01T06:42:42;14.30;40.40
652;DHT22;310;48.490;9.200;2023-01-01T06:45:08;14.40;39.70
652;DHT22;310;48.490;9.200;2023-01-01T06:47:34;14.40;39.60
652;DHT22;310;48.490;9.200;2023-01-01T06:50:03;14.50;39.30
652;DHT22;310;48.490;9.200;2023-01-01T06:52:29;14.40;39.40
652;DHT22;310;48.490;9.200;2023-01-01T06:54:55;14.20;40.00
652;DHT22;310;48.490;9.200;2023-01-01T06:57:21;14.10;40.80
652;DHT22;310;48.490;9.200;2023-01-01T06:59:46;14.10;41.00
652;DHT22;310;48.490;9.200;2023-01-01T07:02:12;13.90;42.30
652;DHT22;310;48.490;9.200;2023-01-01T07:04:38;13.80;42.90
652;DHT22;310;48.490;9.200;2023-01-01T07:07:04;14.10;43.60
652;DHT22;310;48.490;9.200;2023-01-01T07:09:29;13.50;44.30
652;DHT22;310;48.490;9.200;2023-01-01T07:11:55;13.60;44.50
652;DHT22;310;48.490;9.200;2023-01-01T07:14:21;13.50;44.50
652;DHT22;310;48.490;9.200;2023-01-01T07:16:46;13.80;44.60
652;DHT22;310;48.490;9.200;2023-01-01T07:19:12;13.60;43.90
652;DHT22;310;48.490;9.200;2023-01-01T07:21:43;12.70;43.40
652;DHT22;310;48.490;9.200;2023-01-01T07:24:14;14.00;44.50
652;DHT22;310;48.490;9.200;2023-01-01T07:26:40;14.00;44.50
652;DHT22;310;48.490;9.200;2023-01-01T07:29:05;13.60;43.90
652;DHT22;310;48.490;9.200;2023-01-01T07:31:36;13.80;44.10
652;DHT22;310;48.490;9.200;2023-01-01T07:34:03;14.10;42.70
652;DHT22;310;48.490;9.200;2023-01-01T07:36:29;14.40;41.70
652;DHT22;310;48.490;9.200;2023-01-01T07:38:55;14.60;40.60
652;DHT22;310;48.490;9.200;2023-01-01T07:41:20;14.80;39.70
652;DHT22;310;48.490;9.200;2023-01-01T07:43:46;14.60;40.00
652;DHT22;310;48.490;9.200;2023-01-01T07:46:12;14.60;39.60
652;DHT22;310;48.490;9.200;2023-01-01T07:48:40;14.70;39.50
652;DHT22;310;48.490;9.200;2023-01-01T07:51:06;14.70;39.20
652;DHT22;310;48.490;9.200;2023-01-01T07:53:31;14.80;39.70
652;DHT22;310;48.490;9.200;2023-01-01T07:55:57;14.60;39.20
652;DHT22;310;48.490;9.200;2023-01-01T07:58:23;15.00;38.50
652;DHT22;310;48.490;9.200;2023-01-01T08:00:48;15.10;37.70
652;DHT22;310;48.490;9.200;2023-01-01T08:03:15;15.10;37.60
652;DHT22;310;48.490;9.200;2023-01-01T08:05:40;14.90;38.50
652;DHT22;310;48.490;9.200;2023-01-01T08:08:06;14.90;38.60
652;DHT22;310;48.490;9.200;2023-01-01T08:10:32;14.90;38.90
652;DHT22;310;48.490;9.200;2023-01-01T08:13:02;14.80;39.10
652;DHT22;310;48.490;9.200;2023-01-01T08:15:28;15.10;38.90
652;DHT22;310;48.490;9.200;2023-01-01T08:17:58;15.30;37.90
652;DHT22;310;48.490;9.200;2023-01-01T08:20:25;15.20;37.20
652;DHT22;310;48.490;9.200;2023-01-01T08:22:51;15.20;37.20
652;DHT22;310;48.490;9.200;2023-01-01T08:25:17;15.50;37.30
652;DHT22;310;48.490;9.200;2023-01-01T08:27:42;15.70;37.50
652;DHT22;310;48.490;9.200;2023-01-01T08:30:10;16.00;36.70
652;DHT22;310;48.490;9.200;2023-01-01T08:32:36;15.00;37.00
652;DHT22;310;48.490;9.200;2023-01-01T08:35:01;13.20;42.10
652;DHT22;310;48.490;9.200;2023-01-01T08:37:27;13.10;43.80
652;DHT22;310;48.490;9.200;2023-01-01T08:39:53;13.30;44.70
652;DHT22;310;48.490;9.200;2023-01-01T08:42:18;13.00;43.90
652;DHT22;310;48.490;9.200;2023-01-01T08:44:44;13.70;42.90
652;DHT22;310;48.490;9.200;2023-01-01T08:47:21;13.70;41.80
652;DHT22;310;48.490;9.200;2023-01-01T08:49:46;13.90;41.60
652;DHT22;310;48.490;9.200;2023-01-01T08:52:12;13.80;41.00
652;DHT22;310;48.490;9.200;2023-01-01T08:54:38;14.10;40.50
652;DHT22;310;48.490;9.200;2023-01-01T08:57:04;14.20;40.50
652;DHT22;310;48.490;9.200;2023-01-01T08:59:30;14.00;40.50
652;DHT22;310;48.490;9.200;2023-01-01T09:01:55;13.30;43.20
652;DHT22;310;48.490;9.200;2023-01-01T09:04:21;13.40;44.00
652;DHT22;310;48.490;9.200;2023-01-01T09:06:46;13.80;42.40
652;DHT22;310;48.490;9.200;2023-01-01T09:09:12;14.40;40.70
652;DHT22;310;48.490;9.200;2023-01-01T09:11:37;14.60;39.70
652;DHT22;310;48.490;9.200;2023-01-01T09:14:03;14.60;39.60
652;DHT22;310;48.490;9.200;2023-01-01T09:16:29;13.30;42.70
652;DHT22;310;48.490;9.200;2023-01-01T09:18:54;13.30;44.90
652;DHT22;310;48.490;9.200;2023-01-01T09:21:20;13.80;43.30
652;DHT22;310;48.490;9.200;2023-01-01T09:23:45;14.30;41.80
652;DHT22;310;48.490;9.200;2023-01-01T09:26:11;14.40;40.80
652;DHT22;310;48.490;9.200;2023-01-01T09:28:37;14.80;39.30
652;DHT22;310;48.490;9.200;2023-01-01T09:31:04;14.90;39.20
652;DHT22;310;48.490;9.200;2023-01-01T09:33:33;15.10;38.50
652;DHT22;310;48.490;9.200;2023-01-01T09:36:29;15.20;37.60
652;DHT22;310;48.490;9.200;2023-01-01T09:38:56;15.00;39.20
652;DHT22;310;48.490;9.200;2023-01-01T09:44:29;14.70;40.10
652;DHT22;310;48.490;9.200;2023-01-01T09:47:01;14.70;40.60
652;DHT22;310;48.490;9.200;2023-01-01T09:49:36;15.00;39.70
652;DHT22;310;48.490;9.200;2023-01-01T09:52:04;14.90;40.40
652;DHT22;310;48.490;9.200;2023-01-01T09:54:53;15.20;39.00
652;DHT22;310;48.490;9.200;2023-01-01T09:57:26;15.70;37.60
652;DHT22;310;48.490;9.200;2023-01-01T09:59:52;16.20;36.00
652;DHT22;310;48.490;9.200;2023-01-01T10:02:51;16.50;35.40
652;DHT22;310;48.490;9.200;2023-01-01T10:08:14;16.10;36.10
652;DHT22;310;48.490;9.200;2023-01-01T10:13:44;15.10;39.50
652;DHT22;310;48.490;9.200;2023-01-01T10:18:48;16.20;36.80
652;DHT22;310;48.490;9.200;2023-01-01T10:26:18;16.90;36.10
652;DHT22;310;48.490;9.200;2023-01-01T10:31:33;14.70;40.60
652;DHT22;310;48.490;9.200;2023-01-01T10:34:21;14.90;41.00
652;DHT22;310;48.490;9.200;2023-01-01T10:36:52;14.70;40.40
652;DHT22;310;48.490;9.200;2023-01-01T10:39:18;14.70;40.80
652;DHT22;310;48.490;9.200;2023-01-01T10:41:44;14.80;40.60
652;DHT22;310;48.490;9.200;2023-01-01T10:44:11;15.50;38.60
652;DHT22;310;48.490;9.200;2023-01-01T10:46:43;16.30;36.70
652;DHT22;310;48.490;9.200;2023-01-01T10:49:13;16.00;37.30
652;DHT22;310;48.490;9.200;2023-01-01T10:51:44;15.90;37.80
652;DHT22;310;48.490;9.200;2023-01-01T10:54:31;16.30;36.90
652;DHT22;310;48.490;9.200;2023-01-01T10:56:58;17.30;35.20
652;DHT22;310;48.490;9.200;2023-01-01T10:59:36;16.40;35.90
652;DHT22;310;48.490;9.200;2023-01-01T11:04:40;17.30;34.00
652;DHT22;310;48.490;9.200;2023-01-01T11:07:06;17.10;33.70
652;DHT22;310;48.490;9.200;2023-01-01T11:09:32;17.00;34.50
652;DHT22;310;48.490;9.200;2023-01-01T11:12:04;17.40;33.50
652;DHT22;310;48.490;9.200;2023-01-01T11:14:56;17.00;34.50
652;DHT22;310;48.490;9.200;2023-01-01T11:17:33;17.80;33.30
652;DHT22;310;48.490;9.200;2023-01-01T11:20:00;17.70;33.10
652;DHT22;310;48.490;9.200;2023-01-01T11:22:48;18.20;32.50
652;DHT22;310;48.490;9.200;2023-01-01T11:25:25;19.00;30.10
652;DHT22;310;48.490;9.200;2023-01-01T11:27:52;19.30;28.70
652;DHT22;310;48.490;9.200;2023-01-01T11:30:36;19.50;28.90
652;DHT22;310;48.490;9.200;2023-01-01T11:33:03;19.90;28.50
652;DHT22;310;48.490;9.200;2023-01-01T11:35:31;20.00;27.50
652;DHT22;310;48.490;9.200;2023-01-01T11:37:58;20.20;27.90
652;DHT22;310;48.490;9.200;2023-01-01T11:40:32;20.60;27.30
652;DHT22;310;48.490;9.200;2023-01-01T11:43:02;20.40;26.90
652;DHT22;310;48.490;9.200;2023-01-01T11:45:34;19.40;28.30
652;DHT22;310;48.490;9.200;2023-01-01T11:48:11;19.40;28.80
652;DHT22;310;48.490;9.200;2023-01-01T11:50:40;20.10;28.20
652;DHT22;310;48.490;9.200;2023-01-01T11:56:21;21.20;27.80
652;DHT22;310;48.490;9.200;2023-01-01T11:58:59;21.90;26.50
652;DHT22;310;48.490;9.200;2023-01-01T12:01:38;22.40;25.10
652;DHT22;310;48.490;9.200;2023-01-01T12:07:17;22.80;25.50
652;DHT22;310;48.490;9.200;2023-01-01T12:10:08;22.90;24.70
652;DHT22;310;48.490;9.200;2023-01-01T12:12:56;22.40;24.70
652;DHT22;310;48.490;9.200;2023-01-01T12:15:30;22.70;24.90
652;DHT22;310;48.490;9.200;2023-01-01T12:18:53;22.50;24.80
652;DHT22;310;48.490;9.200;2023-01-01T12:21:00;22.90;24.60
652;DHT22;310;48.490;9.200;2023-01-01T12:23:28;23.20;23.50
652;DHT22;310;48.490;9.200;2023-01-01T12:26:21;23.50;25.00
652;DHT22;310;48.490;9.200;2023-01-01T12:34:38;24.40;19.60
652;DHT22;310;48.490;9.200;2023-01-01T12:39:55;23.60;23.20
652;DHT22;310;48.490;9.200;2023-01-01T12:48:03;23.40;22.30
652;DHT22;310;48.490;9.200;2023-01-01T12:56:15;22.70;25.30
652;DHT22;310;48.490;9.200;2023-01-01T12:59:12;22.60;25.40
652;DHT22;310;48.490;9.200;2023-01-01T13:01:39;22.20;26.60
652;DHT22;310;48.490;9.200;2023-01-01T13:04:23;22.30;25.40
652;DHT22;310;48.490;9.200;2023-01-01T13:06:51;22.20;25.50
652;DHT22;310;48.490;9.200;2023-01-01T13:09:20;22.00;26.20
652;DHT22;310;48.490;9.200;2023-01-01T13:11:59;22.10;25.70
652;DHT22;310;48.490;9.200;2023-01-01T13:14:25;21.50;27.00
652;DHT22;310;48.490;9.200;2023-01-01T13:16:55;21.50;27.40
652;DHT22;310;48.490;9.200;2023-01-01T13:19:35;20.80;28.10
652;DHT22;310;48.490;9.200;2023-01-01T13:22:38;20.50;28.30
652;DHT22;310;48.490;9.200;2023-01-01T13:33:21;21.10;28.00
652;DHT22;310;48.490;9.200;2023-01-01T13:38:57;22.10;27.50
652;DHT22;310;48.490;9.200;2023-01-01T13:58:09;21.60;26.10
652;DHT22;310;48.490;9.200;2023-01-01T14:03:41;21.10;26.80
652;DHT22;310;48.490;9.200;2023-01-01T14:06:14;20.90;26.60
652;DHT22;310;48.490;9.200;2023-01-01T14:08:42;20.60;27.70
652;DHT22;310;48.490;9.200;2023-01-01T14:11:20;20.30;28.20
652;DHT22;310;48.490;9.200;2023-01-01T14:13:46;20.00;28.30
652;DHT22;310;48.490;9.200;2023-01-01T14:16:12;20.00;28.40
652;DHT22;310;48.490;9.200;2023-01-01T14:18:44;20.20;28.20
652;DHT22;310;48.490;9.200;2023-01-01T14:21:22;20.60;27.70
652;DHT22;310;48.490;9.200;2023-01-01T14:26:21;20.60;27.10
652;DHT22;310;48.490;9.200;2023-01-01T14:28:47;20.20;27.50
652;DHT22;310;48.490;9.200;2023-01-01T14:31:18;20.50;27.20
652;DHT22;310;48.490;9.200;2023-01-01T14:33:45;20.60;26.90
652;DHT22;310;48.490;9.200;2023-01-01T14:36:27;20.00;27.70
652;DHT22;310;48.490;9.200;2023-01-01T14:38:54;20.00;27.80
652;DHT22;310;48.490;9.200;2023-01-01T14:41:30;19.70;28.30
652;DHT22;310;48.490;9.200;2023-01-01T14:44:18;19.70;28.50
652;DHT22;310;48.490;9.200;2023-01-01T14:46:49;19.80;27.70
652;DHT22;310;48.490;9.200;2023-01-01T14:49:21;19.50;27.90
652;DHT22;310;48.490;9.200;2023-01-01T14:52:01;19.00;29.00
652;DHT22;310;48.490;9.200;2023-01-01T14:54:42;19.00;29.00
652;DHT22;310;48.490;9.200;2023-01-01T14:57:18;19.00;29.00
652;DHT22;310;48.490;9.200;2023-01-01T14:59:50;19.00;29.10
652;DHT22;310;48.490;9.200;2023-01-01T15:02:22;19.00;29.20
652;DHT22;310;48.490;9.200;2023-01-01T15:04:48;19.00;28.90
652;DHT22;310;48.490;9.200;2023-01-01T15:07:26;18.90;28.90
652;DHT22;310;48.490;9.200;2023-01-01T15:09:54;18.90;29.00
652;DHT22;310;48.490;9.200;2023-01-01T15:12:21;18.60;29.20
652;DHT22;310;48.490;9.200;2023-01-01T15:14:49;18.50;29.50
652;DHT22;310;48.490;9.200;2023-01-01T15:17:17;18.30;30.20
652;DHT22;310;48.490;9.200;2023-01-01T15:19:45;18.50;30.10
652;DHT22;310;48.490;9.200;2023-01-01T15:22:17;18.40;30.40
652;DHT22;310;48.490;9.200;2023-01-01T15:24:44;18.50;29.90
652;DHT22;310;48.490;9.200;2023-01-01T15:27:24;18.10;30.10
652;DHT22;310;48.490;9.200;2023-01-01T15:29:52;18.30;30.00
652;DHT22;310;48.490;9.200;2023-01-01T15:32:36;18.40;29.70
652;DHT22;310;48.490;9.200;2023-01-01T15:35:17;18.30;30.30
652;DHT22;310;48.490;9.200;2023-01-01T15:37:49;18.20;30.20
652;DHT22;310;48.490;9.200;2023-01-01T15:45:26;18.00;30.20
652;DHT22;310;48.490;9.200;2023-01-01T15:47:54;18.00;30.40
652;DHT22;310;48.490;9.200;2023-01-01T15:50:58;18.00;30.50
652;DHT22;310;48.490;9.200;2023-01-01T15:53:26;17.90;30.80
652;DHT22;310;48.490;9.200;2023-01-01T15:56:02;17.50;31.30
652;DHT22;310;48.490;9.200;2023-01-01T15:58:31;17.50;31.50
652;DHT22;310;48.490;9.200;2023-01-01T16:01:01;17.40;31.60
652;DHT22;310;48.490;9.200;2023-01-01T16:03:29;17.60;31.00
652;DHT22;310;48.490;9.200;2023-01-01T16:05:56;17.50;31.10
652;DHT22;310;48.490;9.200;2023-01-01T16:08:22;17.60;31.10
652;DHT22;310;48.490;9.200;2023-01-01T16:10:49;17.70;30.90
652;DHT22;310;48.490;9.200;2023-01-01T16:13:15;17.60;30.70
652;DHT22;310;48.490;9.200;2023-01-01T16:15:50;17.80;30.50
652;DHT22;310;48.490;9.200;2023-01-01T16:18:17;17.60;31.00
652;DHT22;310;48.490;9.200;2023-01-01T16:20:44;17.50;31.00
652;DHT22;310;48.490;9.200;2023-01-01T16:23:10;17.80;30.40
652;DHT22;310;48.490;9.200;2023-01-01T16:25:36;17.90;30.40
652;DHT22;310;48.490;9.200;2023-01-01T16:28:02;17.90;30.80
652;DHT22;310;48.490;9.200;2023-01-01T16:30:29;17.70;31.10
652;DHT22;310;48.490;9.200;2023-01-01T16:32:55;17.60;31.00
652;DHT22;310;48.490;9.200;2023-01-01T16:35:21;17.70;30.70
652;DHT22;310;48.490;9.200;2023-01-01T16:37:46;17.80;30.30
652;DHT22;310;48.490;9.200;2023-01-01T16:40:12;17.80;30.50
652;DHT22;310;48.490;9.200;2023-01-01T16:42:37;17.30;31.00
652;DHT22;310;48.490;9.200;2023-01-01T16:45:04;17.30;31.50
652;DHT22;310;48.490;9.200;2023-01-01T16:47:30;17.10;31.70
652;DHT22;310;48.490;9.200;2023-01-01T16:49:55;17.30;30.40
652;DHT22;310;48.490;9.200;2023-01-01T16:52:21;17.20;30.50
652;DHT22;310;48.490;9.200;2023-01-01T16:54:46;17.40;30.20
652;DHT22;310;48.490;9.200;2023-01-01T16:57:12;17.50;29.80
652;DHT22;310;48.490;9.200;2023-01-01T16:59:38;17.50;30.00
652;DHT22;310;48.490;9.200;2023-01-01T17:02:04;17.40;29.00
652;DHT22;310;48.490;9.200;2023-01-01T17:04:30;17.40;29.30
652;DHT22;310;48.490;9.200;2023-01-01T17:06:56;17.60;28.80
652;DHT22;310;48.490;9.200;2023-01-01T17:09:21;17.50;29.50
652;DHT22;310;48.490;9.200;2023-01-01T17:11:47;17.50;28.80
652;DHT22;310;48.490;9.200;2023-01-01T17:14:13;17.40;29.10
652;DHT22;310;48.490;9.200;2023-01-01T17:16:38;17.60;29.00
652;DHT22;310;48.490;9.200;2023-01-01T17:19:04;17.50;28.90
652;DHT22;310;48.490;9.200;2023-01-01T17:21:30;17.50;29.10
652;DHT22;310;48.490;9.200;2023-01-01T17:23:55;17.60;29.00
652;DHT22;310;48.490;9.200;2023-01-01T17:26:22;17.60;28.90
652;DHT22;310;48.490;9.200;2023-01-01T17:28:50;17.50;29.40
652;DHT22;310;48.490;9.200;2023-01-01T17:31:18;17.60;28.60
652;DHT22;310;48.490;9.200;2023-01-01T17:33:49;17.40;29.20
652;DHT22;310;48.490;9.200;2023-01-01T17:36:16;17.30;29.30
652;DHT22;310;48.490;9.200;2023-01-01T17:38:41;16.90;30.00
652;DHT22;310;48.490;9.200;2023-01-01T17:41:13;16.90;29.40
652;DHT22;310;48.490;9.200;2023-01-01T17:43:44;17.00;29.50
652;DHT22;310;48.490;9.200;2023-01-01T17:46:18;16.80;29.60
652;DHT22;310;48.490;9.200;2023-01-01T17:48:46;16.80;29.30
652;DHT22;310;48.490;9.200;2023-01-01T17:51:13;16.80;29.50
652;DHT22;310;48.490;9.200;2023-01-01T17:53:39;16.30;30.10
652;DHT22;310;48.490;9.200;2023-01-01T17:56:06;15.80;32.80
652;DHT22;310;48.490;9.200;2023-01-01T17:58:32;16.10;32.00
652;DHT22;310;48.490;9.200;2023-01-01T18:03:47;16.60;30.60
652;DHT22;310;48.490;9.200;2023-01-01T18:06:12;16.80;29.70
652;DHT22;310;48.490;9.200;2023-01-01T18:08:38;16.40;30.70
652;DHT22;310;48.490;9.200;2023-01-01T18:11:04;16.50;30.50
652;DHT22;310;48.490;9.200;2023-01-01T18:13:30;16.30;30.70
652;DHT22;310;48.490;9.200;2023-01-01T18:16:00;16.30;31.10
652;DHT22;310;48.490;9.200;2023-01-01T18:18:26;16.50;30.70
652;DHT22;310;48.490;9.200;2023-01-01T18:21:00;16.10;32.00
652;DHT22;310;48.490;9.200;2023-01-01T18:23:29;16.10;31.80
652;DHT22;310;48.490;9.200;2023-01-01T18:25:59;16.20;31.70
652;DHT22;310;48.490;9.200;2023-01-01T18:28:24;16.10;31.30
652;DHT22;310;48.490;9.200;2023-01-01T18:30:50;15.60;32.70
652;DHT22;310;48.490;9.200;2023-01-01T18:33:16;15.70;33.40
652;DHT22;310;48.490;9.200;2023-01-01T18:35:41;15.70;33.40
652;DHT22;310;48.490;9.200;2023-01-01T18:38:12;15.40;33.80
652;DHT22;310;48.490;9.200;2023-01-01T18:40:45;15.10;37.60
652;DHT22;310;48.490;9.200;2023-01-01T18:43:23;15.00;36.90
652;DHT22;310;48.490;9.200;2023-01-01T18:45:49;14.70;36.80
652;DHT22;310;48.490;9.200;2023-01-01T18:48:17;14.40;38.50